Latest Weather Observations for Narrandera Airport

IDN60801

Issued at 9:35 am EDT Saturday 29 November 2014 (issued every 30 minutes, with the page automatically refreshed every 10 minutes)

About weather observations | Map of weather stations | Latest weather observations for NSW | Other Formats
Station Details ID: 074148 Name: NARRANDERA AIRPORT AWS Lat: -34.70 Lon: 146.51 Height: 145.0 m
Data from the previous 72 hours. | See also: Recent months for locations in New South Wales
Date/Time
EDT
Temp
°C
App
Temp
°C
Dew
Point
Rel
Hum
%
Delta-T
°C
Wind Press
QNH
hPa
Press
MSL
hPa
Rain
since 9 am
mm
Dir
 
Spd
km/h
Gust
km/h
Spd
kts
Gust
kts
29/09:30am 27.2 22.2 10.8 36 9.3 NNE 28 37 15 20 1015.1 1014.6 0.0
29/09:00am 26.5 22.3 11.0 38 8.8 NNE 24 30 13 16 1015.4 1014.9 0.0
29/08:30am 24.0 20.0 10.3 42 7.6 NE 22 30 12 16 1015.5 1015.0 0.0
29/08:00am 23.6 21.1 9.6 41 7.7 NE 13 20 7 11 1015.8 1015.3 0.0
29/07:30am 21.3 18.3 9.2 46 6.5 ESE 15 20 8 11 1015.7 1015.2 0.0
29/07:00am 20.3 17.6 8.9 48 6.0 ESE 13 17 7 9 1015.4 1014.9 0.0
29/06:30am 18.6 15.3 8.0 50 5.5 ESE 15 17 8 9 1015.2 1014.7 0.0
29/06:00am 18.6 15.2 7.7 49 5.6 ESE 15 19 8 10 1015.3 1014.8 0.0
29/05:30am 18.4 14.9 7.2 48 5.7 SE 15 19 8 10 1014.9 1014.4 0.0
29/05:00am 20.1 15.5 6.4 41 6.9 E 20 24 11 13 1014.4 1013.9 0.0
29/04:30am 19.5 16.1 5.9 41 6.8 ENE 13 19 7 10 1014.1 1013.6 0.0
29/04:00am 20.4 16.0 4.8 36 7.7 E 17 24 9 13 1014.0 1013.5 0.0
29/03:30am 21.6 16.1 3.8 31 8.6 E 22 33 12 18 1013.8 1013.2 0.0
29/03:00am 20.8 15.9 4.0 33 8.1 E 19 24 10 13 1014.0 1013.5 0.0
29/02:30am 20.4 17.1 4.8 36 7.7 ESE 11 17 6 9 1014.3 1013.8 0.0
29/02:00am 20.9 17.2 4.5 34 8.0 E 13 20 7 11 1014.3 1013.8 0.0
29/01:30am 22.2 18.1 4.3 31 8.8 E 15 20 8 11 1014.3 1013.8 0.0
29/01:00am 21.3 18.0 4.4 33 8.3 E 11 13 6 7 1014.5 1014.0 0.0
29/12:30am 23.8 19.4 4.7 29 9.6 E 17 22 9 12 1014.7 1014.2 0.0
29/12:00am 21.1 18.9 5.5 36 7.8 E 6 11 3 6 1014.9 1014.4 0.0
 
Date/Time
EDT
Temp
°C
App
Temp
°C
Dew
Point
Rel
Hum
%
Delta-T
°C
Wind Press
QNH
hPa
Press
MSL
hPa
Rain
since 9 am
mm
Dir
 
Spd
km/h
Gust
km/h
Spd
kts
Gust
kts
28/11:30pm 22.6 19.7 4.6 31 8.9 E 9 15 5 8 1014.9 1014.4 0.0
28/11:00pm 24.2 19.9 5.1 29 9.7 E 17 20 9 11 1015.0 1014.5 0.0
28/10:30pm 25.1 20.8 5.3 28 10.1 E 17 20 9 11 1015.1 1014.6 0.0
28/10:00pm 23.9 20.6 6.2 32 9.1 ESE 13 17 7 9 1015.0 1014.5 0.0
28/09:30pm 23.8 21.2 6.1 32 9.1 SE 9 9 5 5 1014.8 1014.3 0.0
28/09:00pm 24.7 22.5 6.4 31 9.5 SE 7 9 4 5 1014.6 1014.1 0.0
28/08:30pm 25.7 23.3 6.8 30 10.0 SE 9 11 5 6 1014.6 1014.1 0.0
28/08:00pm 28.2 26.2 6.3 25 11.6 SE 6 7 3 4 1014.4 1013.9 0.0
28/07:30pm 31.0 29.8 4.7 19 13.8 CALM 0 0 0 0 1014.3 1013.8 0.0
28/07:00pm 31.3 27.9 4.2 18 14.1 E 11 15 6 8 1014.2 1013.7 0.0
28/06:30pm 31.6 29.6 4.4 18 14.2 E 4 17 2 9 1014.2 1013.7 0.0
28/06:00pm 31.7 28.4 4.5 18 14.3 ESE 11 19 6 10 1014.2 1013.7 0.0
28/05:30pm 31.8 29.3 4.6 18 14.3 E 7 17 4 9 1014.4 1013.9 0.0
28/05:00pm 31.2 28.6 4.1 18 14.1 ESE 7 13 4 7 1014.8 1014.3 0.0
28/04:30pm 32.1 28.6 5.6 19 14.2 E 13 17 7 9 1015.1 1014.6 0.0
28/04:00pm 31.0 28.5 4.7 19 13.8 ENE 7 17 4 9 1015.6 1015.1 0.0
28/03:30pm 31.6 29.0 5.9 20 13.8 NNE 9 19 5 10 1016.0 1015.5 0.0
28/03:00pm 30.7 26.5 5.9 21 13.2 NNE 17 24 9 13 1016.5 1016.0 0.0
28/02:30pm 29.7 26.2 7.0 24 12.3 NE 15 28 8 15 1017.0 1016.5 0.0
28/02:00pm 30.7 26.6 7.8 24 12.6 NE 19 30 10 16 1017.4 1016.9 0.0
28/01:30pm 29.9 25.9 8.3 26 11.9 NE 19 24 10 13 1018.0 1017.5 0.0
28/01:00pm 29.2 26.0 8.3 27 11.5 NNE 15 20 8 11 1018.6 1018.1 0.0
28/12:30pm 28.6 26.6 8.8 29 11.0 ESE 9 13 5 7 1019.2 1018.7 0.0
28/12:00pm 27.1 23.5 8.5 31 10.1 NE 17 24 9 13 1019.7 1019.1 0.0
28/11:30am 26.6 23.2 9.0 33 9.7 NNE 17 28 9 15 1020.1 1019.6 0.0
28/11:00am 26.0 22.3 9.4 35 9.1 NNE 19 28 10 15 1020.3 1019.8 0.0
28/10:30am 24.8 20.3 8.7 36 8.7 NNE 22 28 12 15 1020.7 1020.2 0.0
28/10:00am 24.4 20.4 9.2 38 8.3 NE 20 30 11 16 1020.8 1020.3 0.0
28/09:30am 23.0 18.4 9.8 43 7.2 NE 24 35 13 19 1020.8 1020.3 0.0
28/09:00am 21.9 17.7 9.8 46 6.6 ENE 22 30 12 16 1021.0 1020.5 0.0
28/08:30am 21.4 17.2 9.9 48 6.2 ENE 22 33 12 18 1020.9 1020.4 0.0
28/08:00am 19.3 14.3 9.5 53 5.2 ENE 26 33 14 18 1020.7 1020.2 0.0
28/07:30am 18.4 14.1 9.5 56 4.7 ENE 22 30 12 16 1020.6 1020.1 0.0
28/07:00am 17.4 13.5 9.6 60 4.1 E 20 28 11 15 1020.5 1020.0 0.0
28/06:30am 16.3 13.7 9.5 64 3.6 E 13 20 7 11 1020.3 1019.8 0.0
28/06:00am 15.7 12.8 9.6 67 3.2 E 15 20 8 11 1019.9 1019.3 0.0
28/05:30am 15.8 13.3 9.7 67 3.2 E 13 20 7 11 1019.7 1019.1 0.0
28/05:00am 15.9 12.7 10.0 68 3.1 E 17 20 9 11 1019.3 1018.8 0.0
28/04:30am 16.4 12.7 10.3 67 3.2 E 20 26 11 14 1018.9 1018.4 0.0
28/04:00am 16.6 13.5 10.2 66 3.4 ESE 17 20 9 11 1018.9 1018.4 0.0
28/03:30am 17.0 14.0 10.6 66 3.4 ESE 17 22 9 12 1018.8 1018.3 0.0
28/03:00am 18.1 14.1 10.5 61 4.1 E 22 30 12 16 1018.8 1018.3 0.0
28/02:30am 18.6 14.3 10.7 60 4.3 E 24 35 13 19 1018.8 1018.3 0.0
28/02:00am 19.1 14.8 10.9 59 4.5 E 24 33 13 18 1018.8 1018.3 0.0
28/01:30am 19.2 16.2 10.5 57 4.7 E 17 20 9 11 1018.9 1018.4 0.0
28/01:00am 18.4 16.1 8.9 54 5.0 ESE 11 13 6 7 1018.8 1018.3 0.0
28/12:30am 17.7 17.0 8.6 55 4.7 E 2 9 1 5 1018.8 1018.3 0.0
28/12:00am 18.1 17.8 8.7 54 4.9 CALM 0 0 0 0 1018.5 1018.0 0.0
 
Date/Time
EDT
Temp
°C
App
Temp
°C
Dew
Point
Rel
Hum
%
Delta-T
°C
Wind Press
QNH
hPa
Press
MSL
hPa
Rain
since 9 am
mm
Dir
 
Spd
km/h
Gust
km/h
Spd
kts
Gust
kts
27/11:30pm 17.7 17.3 8.3 54 4.8 CALM 0 0 0 0 1018.3 1017.8 0.0
27/11:00pm 19.4 18.9 7.8 47 6.0 CALM 0 0 0 0 1018.2 1017.7 0.0
27/10:30pm 21.2 19.0 7.8 42 7.0 S 9 11 5 6 1018.1 1017.6 0.0
27/10:00pm 20.9 20.0 7.9 43 6.8 S 2 9 1 5 1018.1 1017.6 0.0
27/09:30pm 23.1 20.4 7.2 36 8.3 S 11 13 6 7 1017.9 1017.4 0.0
27/09:00pm 22.1 20.3 7.9 40 7.5 S 7 9 4 5 1017.6 1017.1 0.0
27/08:30pm 24.2 22.5 7.4 34 8.9 S 6 7 3 4 1017.5 1017.0 0.0
27/08:00pm 27.0 25.3 5.9 26 11.0 SSE 4 7 2 4 1017.3 1016.8 0.0
27/07:30pm 28.6 26.3 5.5 23 12.1 SSE 7 9 4 5 1017.1 1016.6 0.0
27/07:00pm 29.3 25.9 4.0 20 12.9 S 11 19 6 10 1016.9 1016.4 0.0
27/06:30pm 29.5 27.0 4.9 21 12.8 S 7 13 4 7 1016.7 1016.2 0.0
27/06:00pm 30.2 26.9 4.8 20 13.3 SSW 11 17 6 9 1016.7 1016.2 0.0
27/05:30pm 29.4 26.7 5.5 22 12.6 SSE 9 17 5 9 1016.9 1016.4 0.0
27/05:00pm 29.8 26.9 4.4 20 13.1 SE 9 22 5 12 1017.0 1016.5 0.0
27/04:30pm 29.7 26.6 3.6 19 13.3 S 9 17 5 9 1017.2 1016.7 0.0
27/04:00pm 30.2 27.7 4.8 20 13.2 E 7 15 4 8 1017.5 1017.0 0.0
27/03:30pm 28.6 26.1 4.8 22 12.3 WSW 7 13 4 7 1017.8 1017.3 0.0
27/03:00pm 29.9 26.3 5.2 21 12.9 SE 13 24 7 13 1017.9 1017.4 0.0
27/02:30pm 28.7 25.8 6.7 25 11.8 NW 11 22 6 12 1018.5 1018.0 0.0
27/02:00pm 27.6 24.2 7.5 28 10.8 S 15 24 8 13 1019.0 1018.5 0.0
27/01:30pm 28.0 26.3 8.3 29 10.8 SSE 7 17 4 9 1019.2 1018.7 0.0
27/01:00pm 26.4 24.0 6.9 29 10.3 SE 9 19 5 10 1019.7 1019.1 0.0
27/12:30pm 26.1 24.3 8.1 32 9.7 SW 7 13 4 7 1020.1 1019.6 0.0
27/12:00pm 25.4 23.3 8.4 34 9.2 SSE 9 20 5 11 1020.5 1020.0 0.0
27/11:30am 24.4 23.1 9.2 38 8.3 SSW 6 15 3 8 1020.8 1020.3 0.0
27/11:00am 23.5 22.4 9.9 42 7.5 ESE 6 11 3 6 1021.1 1020.6 0.0
27/10:30am 22.6 21.7 10.7 47 6.6 NNW 6 11 3 6 1021.3 1020.8 0.0
27/10:00am 21.7 20.8 10.5 49 6.1 SE 6 9 3 5 1021.3 1020.8 0.0
27/09:30am 20.0 19.3 9.9 52 5.4 SSE 4 11 2 6 1021.4 1020.9 0.0
27/09:00am 18.7 17.3 9.5 55 4.9 S 7 13 4 7 1021.5 1021.0 0.0
27/08:30am 17.6 15.8 9.5 59 4.3 SSW 9 15 5 8 1021.5 1021.0 0.0
27/08:00am 16.1 13.9 9.5 65 3.4 SSW 11 15 6 8 1021.4 1020.9 0.0
27/07:30am 14.8 12.1 9.0 68 3.0 SSW 13 15 7 8 1021.2 1020.7 0.0
27/07:00am 13.7 12.2 9.0 73 2.4 S 7 11 4 6 1021.0 1020.5 0.0
27/06:30am 13.0 11.2 9.3 78 1.9 SSW 9 11 5 6 1020.7 1020.2 0.0
27/06:00am 12.6 10.7 9.2 80 1.7 SW 9 13 5 7 1020.4 1019.9 0.0
27/05:30am 12.6 9.9 9.1 79 1.8 SSW 13 15 7 8 1019.9 1019.3 0.0
27/05:00am 13.1 10.8 9.0 76 2.1 SSW 11 13 6 7 1019.7 1019.1 0.0
27/04:30am 13.5 11.2 9.0 74 2.3 SSW 11 15 6 8 1019.3 1018.8 0.0
27/04:00am 13.9 11.5 8.7 71 2.6 SSW 11 17 6 9 1019.1 1018.6 0.0
27/03:30am 14.6 11.5 8.8 68 3.0 SSW 15 22 8 12 1018.9 1018.4 0.0
27/03:00am 14.9 12.1 8.6 66 3.2 SSW 13 17 7 9 1018.8 1018.3 0.0
27/02:30am 15.4 12.2 8.4 63 3.6 SSW 15 19 8 10 1019.1 1018.6 0.0
27/02:00am 15.9 13.0 8.2 60 3.9 SSW 13 19 7 10 1019.3 1018.8 0.0
27/01:30am 16.6 12.9 8.1 57 4.3 SSW 17 24 9 13 1019.4 1018.9 0.0
27/01:00am 17.1 13.4 8.0 55 4.6 SW 17 22 9 12 1019.8 1019.2 0.0
27/12:30am 17.8 14.4 7.8 52 5.1 SSW 15 20 8 11 1019.9 1019.3 0.0
27/12:00am 18.3 14.6 8.0 51 5.3 SSW 17 20 9 11 1020.0 1019.5 0.0
 
Date/Time
EDT
Temp
°C
App
Temp
°C
Dew
Point
Rel
Hum
%
Delta-T
°C
Wind Press
QNH
hPa
Press
MSL
hPa
Rain
since 9 am
mm
Dir
 
Spd
km/h
Gust
km/h
Spd
kts
Gust
kts
26/11:30pm 19.2 15.4 7.6 47 6.0 S 17 24 9 13 1019.9 1019.3 0.0
26/11:00pm 19.8 15.4 7.5 45 6.3 S 20 28 11 15 1019.8 1019.2 0.0
26/10:30pm 20.5 16.2 7.2 42 6.8 S 19 26 10 14 1019.7 1019.1 0.0
26/10:00pm 19.8 17.0 5.1 38 7.2 SW 9 15 5 8 1019.2 1018.7 0.0
26/09:30pm 19.6 17.1 4.5 37 7.3 SW 7 9 4 5 1018.9 1018.4 0.0
26/09:00pm 21.5 18.3 3.2 30 8.8 SW 9 11 5 6 1018.6 1018.1 0.0
26/08:30pm 22.1 18.1 2.8 28 9.2 SSW 13 19 7 10 1018.5 1018.0 0.0
26/08:00pm 23.2 18.0 2.7 26 9.8 SSW 19 26 10 14 1018.2 1017.7 0.0
26/07:30pm 24.4 19.1 3.1 25 10.4 SSW 20 28 11 15 1018.0 1017.5 0.0
26/07:00pm 25.3 20.1 3.3 24 10.8 SSW 20 32 11 17 1017.8 1017.3 0.0
26/06:30pm 25.9 20.9 3.8 24 11.0 SW 19 32 10 17 1017.3 1016.8 0.0
26/06:00pm 26.4 21.4 3.6 23 11.4 SW 19 33 10 18 1017.0 1016.5 0.0
26/05:30pm 27.1 22.6 4.2 23 11.6 SW 17 28 9 15 1017.0 1016.5 0.0
26/05:00pm 26.8 21.7 4.0 23 11.5 SSW 20 35 11 19 1017.0 1016.5 0.0
26/04:30pm 26.7 20.3 3.2 22 11.7 SSW 26 33 14 18 1017.3 1016.8 0.0
26/04:00pm 27.1 22.9 3.6 22 11.8 WSW 15 24 8 13 1017.4 1016.9 0.0
26/03:30pm 26.9 21.9 3.4 22 11.7 SSW 19 28 10 15 1017.7 1017.2 0.0
26/03:00pm 26.8 19.1 3.3 22 11.7 SSW 33 41 18 22 1018.0 1017.5 0.0
26/02:30pm 26.7 20.6 2.6 21 11.9 S 24 33 13 18 1018.1 1017.6 0.0
26/02:00pm 26.3 21.0 2.9 22 11.5 SW 20 37 11 20 1018.5 1018.0 0.0
26/01:30pm 26.1 20.7 2.7 22 11.5 WSW 20 35 11 19 1018.7 1018.2 0.0
26/01:00pm 25.5 20.1 2.2 22 11.3 SW 20 33 11 18 1019.1 1018.6 0.0
26/12:30pm 25.1 19.7 2.5 23 11.0 W 20 30 11 16 1019.3 1018.8 0.0
26/12:00pm 25.4 20.4 3.4 24 10.9 SW 19 32 10 17 1019.7 1019.1 0.0
26/11:30am 24.2 19.2 3.5 26 10.2 WSW 19 30 10 16 1020.0 1019.5 0.0
26/11:00am 24.1 19.8 3.4 26 10.1 WSW 15 19 8 10 1020.2 1019.7 0.0
26/10:30am 23.4 20.4 3.9 28 9.6 WSW 9 24 5 13 1020.2 1019.7 0.0
26/10:00am 22.5 19.7 3.1 28 9.3 W 7 19 4 10 1020.2 1019.7 0.0

Other Formats:

Comma delimited format used in spreadsheet applications
http://www.bom.gov.au/fwo/IDN60801/IDN60801.95706.axf

JavaScript Object Notation format (JSON) in row-major order
http://www.bom.gov.au/fwo/IDN60801/IDN60801.95706.json